Etusivu
METAR-TAF:

METAR-TAF

Lentoasemat :

Hondo, Texas, Yhdysvallat

Leveyspiiri: 29-21-34N, Pituuspiiri: 099-10-27W, korkeus merenpinnasta: 283 m

Tämänhetkinen sää

Tämä raportti tehtiin 22 minuuttia sitten, kello 08.15 UTC
Tuuli 9 kn etelästä/kaakosta
Lämpötila 26°C
Kosteus 89%
Ilmanpaine 1021 hPa
Näkyvyys: 16.1 km
Pilvistä 1100 ft:n korkeudessa

METAR: KHDO 140815Z AUTO 15009KT 10SM OVC011 26/24 A3014 RMK AO2 T02560239

Aika: 03:37 (08:37 UTC)


TAF: puuttuu

Säähavainnot ja -ennusteet yli 4000 lentoasemalta (METAR- ja TAF-raportit).

Käytössä olevat sääasemat on merkitty karttaan keltaisilla ja punaisilla pisteillä.

Aseta hiiri pisteen päälle nähdäksesi sääaseman nimen.

Klikkaa sitten nähdäksesi säähavainnot ja -ennusteet.

Kartan vaihtaminen: klikkaa mustalla rastilla varustettuja vihreitä pisteitä, niin voit zoomata sisään; viivalla varustettua vihreää pistettä, niin voit zoomata ulos tai vihreitä nuolia, niin pääset viereisille kartoille.


METAR-TAF: